Time;durP1;ratioP1;P1;durP2;ratioP2;P2;SDS_P1;SDS_P2;PMS_P1;PMS_P2;Temp;Humidity;BMP_temperature;BMP_pressure;BME280_temperature;BME280_humidity;BME280_pressure;Samples;Min_cycle;Max_cycle;Signal;HPM_P1;HPM_P2
2021/12/03 00:00:23;;;;;;;;;9.75;7.50;;;;;6.75;56.39;101001.31;5067990;27;45903;-71
2021/12/03 00:02:48;;;;;;;;;13.50;10.50;;;;;7.31;56.72;101091.91;5069878;27;46301;-73
2021/12/03 00:05:14;;;;;;;;;6.75;5.50;;;;;7.32;56.82;101091.97;5069550;27;45686;-72
2021/12/03 00:07:42;;;;;;;;;10.75;8.25;;;;;7.28;56.68;101082.31;5069754;27;46508;-72
2021/12/03 00:10:10;;;;;;;;;11.75;9.25;;;;;7.30;56.61;101091.03;5067774;28;46032;-71
2021/12/03 00:12:40;;;;;;;;;11.00;9.00;;;;;7.29;56.46;101076.28;5069539;27;45750;-72
2021/12/03 00:15:09;;;;;;;;;12.25;9.00;;;;;7.26;56.59;101083.13;5067647;27;45955;-72
2021/12/03 00:17:35;;;;;;;;;8.25;7.00;;;;;7.22;56.78;101090.91;5074602;27;46228;-72
2021/12/03 00:20:06;;;;;;;;;10.50;9.00;;;;;7.23;57.12;101089.16;5075953;27;45676;-73
2021/12/03 00:22:32;;;;;;;;;11.25;9.50;;;;;7.24;57.09;101090.94;5069895;27;45586;-73
2021/12/03 00:24:58;;;;;;;;;10.75;8.00;;;;;7.26;57.05;101094.47;5067566;27;45417;-74
2021/12/03 00:27:26;;;;;;;;;12.75;6.00;;;;;7.00;56.89;101047.00;5069368;28;45999;-74
2021/12/03 00:29:52;;;;;;;;;89.33;76.00;;;;;7.12;56.80;101077.63;5069498;27;45942;-71
2021/12/03 00:32:27;;;;;;;;;97.67;82.33;;;;;6.96;56.93;101048.66;5068811;27;45613;-73
2021/12/03 00:34:53;;;;;;;;;45.75;34.50;;;;;7.21;56.72;101096.06;5068219;27;46088;-74
2021/12/03 00:37:27;;;;;;;;;25.25;21.75;;;;;7.12;57.28;101065.50;5069043;28;47052;-74
2021/12/03 00:39:53;;;;;;;;;18.50;18.50;;;;;7.16;56.91;101082.06;5070340;28;46048;-73
2021/12/03 00:42:19;;;;;;;;;21.25;14.00;;;;;6.74;57.17;101005.66;5070320;27;45814;-72
2021/12/03 00:44:51;;;;;;;;;21.00;16.50;;;;;6.51;57.34;100988.66;5064507;28;45957;-73
2021/12/03 00:47:16;;;;;;;;;21.75;16.50;;;;;7.19;56.92;101103.88;5055487;27;45948;-72
2021/12/03 00:49:43;;;;;;;;;15.25;11.50;;;;;7.22;57.18;101090.03;5051500;28;44879;-72
2021/12/03 00:52:08;;;;;;;;;17.75;12.00;;;;;7.27;57.13;101095.34;5070552;28;45525;-72
2021/12/03 00:54:35;;;;;;;;;13.00;9.00;;;;;7.25;57.04;101105.72;5070106;27;45927;-71
2021/12/03 00:57:04;;;;;;;;;13.50;9.75;;;;;7.22;57.27;101100.44;5069627;27;46616;-72
2021/12/03 00:59:31;;;;;;;;;11.00;9.00;;;;;7.19;57.14;101103.00;5070403;27;45825;-72
2021/12/03 01:01:57;;;;;;;;;9.00;7.00;;;;;6.59;57.08;101005.31;5068889;27;45913;-72
2021/12/03 01:04:23;;;;;;;;;9.25;8.50;;;;;6.90;57.08;101051.13;5051182;28;45924;-72
2021/12/03 01:06:49;;;;;;;;;11.00;8.50;;;;;7.16;57.51;101118.53;5052038;27;46384;-72
2021/12/03 01:09:20;;;;;;;;;11.00;9.00;;;;;6.59;56.98;101024.41;5052929;28;45864;-72
2021/12/03 01:11:48;;;;;;;;;11.00;7.00;;;;;7.15;56.90;101120.25;5071508;27;46066;-75
2021/12/03 01:14:15;;;;;;;;;11.75;9.25;;;;;7.14;57.03;101115.00;5061839;27;45606;-71
2021/12/03 01:17:06;;;;;;;;;13.25;10.25;;;;;7.13;57.28;101113.25;5069225;28;47998;-70
2021/12/03 01:19:38;;;;;;;;;10.25;9.75;;;;;7.15;56.93;101133.28;5088992;27;46036;-72
2021/12/03 01:22:30;;;;;;;;;10.00;9.00;;;;;7.14;56.96;101128.03;5073841;28;45835;-72
2021/12/03 01:25:00;;;;;;;;;14.00;13.25;;;;;7.12;57.65;101130.63;5074641;27;45495;-71
2021/12/03 01:27:26;;;;;;;;;15.00;10.00;;;;;6.46;57.49;101014.56;5078730;27;45890;-73
2021/12/03 01:29:52;;;;;;;;;12.25;10.25;;;;;6.76;57.50;101084.69;5071557;27;45534;-73
2021/12/03 01:33:00;;;;;;;;;12.00;11.00;;;;;7.07;57.44;101131.34;5072045;27;45554;-73
2021/12/03 01:35:29;;;;;;;;;12.50;10.00;;;;;6.63;57.55;101047.91;5066581;27;45468;-71
2021/12/03 01:38:00;;;;;;;;;12.75;9.25;;;;;6.69;57.11;101059.34;5071815;28;45730;-71
2021/12/03 01:40:34;;;;;;;;;13.75;11.50;;;;;6.95;57.66;101118.94;5051574;27;46001;-72
2021/12/03 01:43:04;;;;;;;;;11.25;9.00;;;;;6.25;57.54;100986.31;5050140;28;45731;-72
2021/12/03 01:45:50;;;;;;;;;;;;;;;;;;;;;
2021/12/03 01:48:16;;;;;;;;;13.75;9.75;;;;;6.71;57.68;101075.84;5049183;28;75892;-71
2021/12/03 01:50:44;;;;;;;;;12.25;10.50;;;;;7.01;57.60;101129.50;5049939;28;45599;-71
2021/12/03 01:53:13;;;;;;;;;13.25;9.00;;;;;6.73;57.79;101097.59;5050461;28;45478;-72
2021/12/03 01:55:43;;;;;;;;;14.75;12.50;;;;;7.04;57.59;101147.78;5049037;27;45598;-71
2021/12/03 01:58:10;;;;;;;;;7.75;7.75;;;;;6.70;57.53;101094.94;5049809;28;45979;-71
2021/12/03 02:01:00;;;;;;;;;12.50;10.00;;;;;6.97;57.98;101140.69;5052410;28;45737;-71
2021/12/03 02:03:33;;;;;;;;;15.00;13.75;;;;;7.00;57.90;101157.28;5050863;28;45338;-72
2021/12/03 02:05:59;;;;;;;;;11.50;10.25;;;;;7.05;57.77;101166.88;5050038;28;45873;-72
2021/12/03 02:08:26;;;;;;;;;10.00;10.00;;;;;6.23;57.53;101001.00;5049693;28;45766;-72
2021/12/03 02:10:52;;;;;;;;;13.25;10.25;;;;;6.94;57.32;101117.19;5047566;28;46008;-72
2021/12/03 02:13:19;;;;;;;;;14.50;10.00;;;;;6.69;57.06;101093.19;5049948;28;45475;-71
2021/12/03 02:15:46;;;;;;;;;1.00;1.00;;;;;6.89;57.12;101134.44;5047983;28;45671;-71
2021/12/03 02:18:13;;;;;;;;;18.00;11.00;;;;;7.03;56.96;101145.16;5049819;28;45363;-71
2021/12/03 02:20:44;;;;;;;;;11.75;11.00;;;;;6.80;57.43;101089.09;5047708;27;46631;-71
2021/12/03 02:23:11;;;;;;;;;13.50;12.50;;;;;7.01;57.24;101132.09;5048321;28;45812;-71
2021/12/03 02:25:37;;;;;;;;;10.00;8.00;;;;;6.91;57.32;101106.69;5049645;28;45500;-72
2021/12/03 02:28:03;;;;;;;;;10.50;10.50;;;;;6.71;57.23;101082.78;5049027;27;45514;-70
2021/12/03 02:30:29;;;;;;;;;15.00;12.00;;;;;6.47;56.80;101047.53;5048942;28;46307;-71
2021/12/03 02:32:55;;;;;;;;;17.75;16.00;;;;;6.41;56.99;101030.88;5049267;28;45943;-71
2021/12/03 02:35:23;;;;;;;;;13.75;13.00;;;;;7.04;57.31;101139.09;5048887;28;45792;-70
2021/12/03 02:37:49;;;;;;;;;14.25;11.75;;;;;7.03;57.37;101147.78;5049669;28;46281;-72
2021/12/03 02:40:19;;;;;;;;;16.25;15.00;;;;;6.71;57.15;101086.28;5049991;28;45579;-72
2021/12/03 02:42:45;;;;;;;;;15.50;13.25;;;;;7.07;57.43;101141.75;5049455;28;45657;-72
2021/12/03 02:45:13;;;;;;;;;15.00;13.50;;;;;6.88;57.22;101117.03;5048271;28;45659;-70
2021/12/03 02:47:40;;;;;;;;;11.75;9.50;;;;;7.03;57.22;101138.22;5049027;28;46194;-70
2021/12/03 02:50:08;;;;;;;;;11.75;10.00;;;;;6.62;57.22;101070.47;5047893;28;45619;-72
2021/12/03 02:52:35;;;;;;;;;16.50;13.25;;;;;6.95;57.29;101138.06;5050410;28;45950;-71
2021/12/03 02:55:01;;;;;;;;;14.00;12.25;;;;;6.94;57.66;101132.81;5069960;27;45948;-71
2021/12/03 02:57:26;;;;;;;;;15.50;12.75;;;;;6.74;57.53;101098.50;5069618;27;46364;-71
2021/12/03 02:59:52;;;;;;;;;13.50;13.00;;;;;6.90;57.68;101126.63;5069368;27;45846;-71
2021/12/03 03:02:18;;;;;;;;;13.75;12.00;;;;;6.92;57.16;101116.25;5069419;27;45803;-71
2021/12/03 03:04:44;;;;;;;;;17.25;13.50;;;;;6.89;57.78;101106.66;5069197;27;45567;-70
2021/12/03 03:07:10;;;;;;;;;16.75;12.50;;;;;6.70;57.32;101055.88;5068706;27;46258;-71
2021/12/03 03:09:35;;;;;;;;;13.00;11.50;;;;;6.83;57.25;101077.00;5062489;27;45491;-71
2021/12/03 03:12:02;;;;;;;;;16.75;12.25;;;;;6.93;57.13;101107.63;5048778;28;46024;-71
2021/12/03 03:14:28;;;;;;;;;13.75;11.50;;;;;6.73;57.19;101071.56;5048494;28;45750;-70
2021/12/03 03:16:55;;;;;;;;;15.50;11.50;;;;;6.81;57.35;101084.78;5066427;28;47799;-70
2021/12/03 03:19:23;;;;;;;;;17.00;13.00;;;;;6.50;57.34;101026.81;5052052;28;45759;-71
2021/12/03 03:21:50;;;;;;;;;14.75;12.75;;;;;6.51;57.34;101025.97;5052389;28;45605;-70
2021/12/03 03:24:17;;;;;;;;;17.00;13.50;;;;;6.83;57.32;101087.41;5052024;28;45537;-71
2021/12/03 03:26:45;;;;;;;;;13.50;12.00;;;;;6.90;57.42;101084.09;5052332;28;45965;-71
2021/12/03 03:29:15;;;;;;;;;13.50;10.75;;;;;6.79;57.01;101069.13;5051652;28;45433;-70
2021/12/03 03:31:40;;;;;;;;;17.50;12.75;;;;;6.19;57.06;100980.09;5052224;28;45497;-72
2021/12/03 03:34:08;;;;;;;;;15.75;11.50;;;;;6.83;57.42;101093.47;5068187;27;45542;-71
2021/12/03 03:36:36;;;;;;;;;13.00;13.00;;;;;6.54;57.82;101041.63;5052021;28;45920;-71
2021/12/03 03:39:07;;;;;;;;;12.75;11.50;;;;;6.84;57.00;101089.19;5059756;28;46236;-70
2021/12/03 03:41:37;;;;;;;;;12.75;12.00;;;;;6.82;56.81;101096.94;5060929;27;45700;-70
2021/12/03 03:44:03;;;;;;;;;15.25;11.00;;;;;6.48;57.52;101045.84;5070788;28;45425;-70
2021/12/03 03:46:29;;;;;;;;;10.25;10.25;;;;;6.27;57.46;101002.84;5053996;27;46346;-71
2021/12/03 03:48:55;;;;;;;;;11.50;10.50;;;;;5.87;57.05;100939.44;5051466;28;45729;-71
2021/12/03 03:51:21;;;;;;;;;11.25;11.00;;;;;6.77;57.71;101090.75;5051685;28;45827;-70
2021/12/03 03:53:47;;;;;;;;;10.75;10.00;;;;;6.63;57.09;101082.63;5051890;28;45414;-70
2021/12/03 03:56:13;;;;;;;;;11.50;10.00;;;;;6.08;57.12;100992.84;5051348;28;45661;-71
2021/12/03 03:58:41;;;;;;;;;13.50;10.75;;;;;6.32;57.65;101039.38;5052035;28;45859;-72
2021/12/03 04:01:08;;;;;;;;;11.75;11.75;;;;;6.46;57.66;101058.81;5051464;28;45496;-70
2021/12/03 04:03:34;;;;;;;;;13.00;11.00;;;;;6.64;57.80;101099.97;5052382;28;45394;-71
2021/12/03 04:06:01;;;;;;;;;7.00;7.00;;;;;6.44;57.22;101057.00;5050033;28;46768;-70
2021/12/03 04:08:29;;;;;;;;;11.75;8.50;;;;;6.02;57.99;100992.69;5051842;28;45886;-71
2021/12/03 04:10:57;;;;;;;;;11.50;9.25;;;;;5.41;57.48;100883.75;5051348;28;45697;-71
2021/12/03 04:13:22;;;;;;;;;11.50;11.50;;;;;5.99;57.63;100979.63;5051924;28;45878;-71
2021/12/03 04:15:48;;;;;;;;;9.00;9.00;;;;;6.34;57.67;101043.78;5050261;28;45826;-71
2021/12/03 04:18:14;;;;;;;;;9.50;8.00;;;;;6.57;58.42;101077.25;5051197;28;45807;-70
2021/12/03 04:20:40;;;;;;;;;11.00;9.00;;;;;6.58;57.54;101064.28;5066835;27;45525;-72
2021/12/03 04:23:07;;;;;;;;;9.25;8.25;;;;;6.56;57.56;101065.97;5052389;28;45935;-73
2021/12/03 04:25:34;;;;;;;;;12.00;10.00;;;;;6.25;58.01;101025.34;5051851;28;46511;-73
2021/12/03 04:28:00;;;;;;;;;13.25;10.75;;;;;6.51;57.86;101077.13;5051197;28;45627;-71
2021/12/03 04:30:29;;;;;;;;;9.00;9.00;;;;;6.26;57.87;101047.88;5051882;28;45981;-71
2021/12/03 04:32:57;;;;;;;;;9.25;9.00;;;;;6.46;58.18;101087.44;5052436;28;45775;-70
2021/12/03 04:35:25;;;;;;;;;10.00;8.25;;;;;6.48;58.18;101093.56;5050854;28;46035;-70
2021/12/03 04:37:51;;;;;;;;;11.00;9.75;;;;;5.96;58.02;101001.22;5050932;28;45449;-70
2021/12/03 04:40:20;;;;;;;;;12.00;10.00;;;;;6.16;57.79;101022.50;5051805;28;45549;-72
2021/12/03 04:42:46;;;;;;;;;8.50;7.75;;;;;6.14;58.15;101029.38;5051813;28;45528;-71
2021/12/03 04:45:15;;;;;;;;;10.75;8.75;;;;;6.41;58.39;101069.91;5051230;28;45528;-72
2021/12/03 04:47:40;;;;;;;;;8.75;8.75;;;;;5.94;57.57;100995.97;5051349;28;45425;-70
2021/12/03 04:50:10;;;;;;;;;9.00;8.00;;;;;6.30;57.93;101060.16;5051140;28;45592;-71
2021/12/03 04:52:35;;;;;;;;;9.75;8.00;;;;;6.25;58.30;101050.47;5051565;28;45858;-70
2021/12/03 04:55:02;;;;;;;;;13.50;8.00;;;;;6.27;57.93;101057.47;5050381;28;46498;-69
2021/12/03 04:57:31;;;;;;;;;8.00;8.00;;;;;6.34;58.05;101063.72;5050344;28;45511;-71
2021/12/03 04:59:57;;;;;;;;;9.00;7.00;;;;;6.25;58.02;101055.69;5051800;28;45429;-72
2021/12/03 05:02:24;;;;;;;;;6.50;6.50;;;;;6.32;58.14;101073.19;5051092;28;45611;-71
2021/12/03 05:04:53;;;;;;;;;9.50;8.00;;;;;6.36;57.81;101077.66;5051213;28;46030;-71
2021/12/03 05:07:31;;;;;;;;;8.00;7.00;;;;;6.37;57.59;101067.25;5064371;28;45776;-72
2021/12/03 05:10:00;;;;;;;;;12.25;10.00;;;;;6.38;57.45;101062.91;5071035;27;45796;-71
2021/12/03 05:12:25;;;;;;;;;7.00;6.25;;;;;6.40;57.59;101058.63;5070944;27;45492;-71
2021/12/03 05:14:51;;;;;;;;;7.75;6.00;;;;;6.39;58.18;101053.41;5070624;27;46120;-71
2021/12/03 05:17:17;;;;;;;;;9.00;9.00;;;;;6.29;57.80;101026.31;5070544;27;45831;-70
2021/12/03 05:19:43;;;;;;;;;8.00;8.00;;;;;6.04;57.79;100976.28;5070819;28;45496;-71
2021/12/03 05:22:09;;;;;;;;;10.00;8.25;;;;;6.41;58.17;101038.69;5070983;27;45870;-73
2021/12/03 05:24:35;;;;;;;;;10.25;7.50;;;;;6.14;57.39;100998.19;5070481;28;45500;-71
2021/12/03 05:27:01;;;;;;;;;6.00;5.75;;;;;6.39;58.08;101040.41;5070864;28;45472;-72
2021/12/03 05:29:26;;;;;;;;;12.50;8.50;;;;;5.54;57.52;100895.31;5070684;27;45783;-71
2021/12/03 05:31:55;;;;;;;;;8.25;7.25;;;;;6.46;57.20;101035.38;5070804;27;45609;-70
2021/12/03 05:34:21;;;;;;;;;5.75;5.75;;;;;6.47;57.38;101044.94;5052255;27;46614;-71
2021/12/03 05:36:46;;;;;;;;;8.25;7.00;;;;;6.32;57.64;101011.63;5067144;27;45778;-70
2021/12/03 05:39:13;;;;;;;;;8.75;7.50;;;;;6.17;56.94;100982.69;5068487;27;45570;-70
2021/12/03 05:41:41;;;;;;;;;9.00;9.00;;;;;6.12;57.45;100992.97;5058397;27;45902;-72
2021/12/03 05:44:07;;;;;;;;;11.75;8.00;;;;;5.98;57.58;100980.44;5050190;27;46413;-71
2021/12/03 05:46:32;;;;;;;;;12.25;9.25;;;;;6.33;57.22;101031.59;5050379;28;45641;-69
2021/12/03 05:48:59;;;;;;;;;12.25;9.25;;;;;6.29;57.58;101031.50;5050182;28;45550;-71
2021/12/03 05:51:26;;;;;;;;;9.50;9.25;;;;;5.95;58.02;100969.13;5050168;27;46049;-70
2021/12/03 05:53:53;;;;;;;;;11.00;10.00;;;;;5.92;57.87;100969.03;5049709;28;45996;-70
2021/12/03 05:56:19;;;;;;;;;10.75;9.00;;;;;5.93;57.63;100977.69;5065043;27;45491;-71
2021/12/03 05:58:45;;;;;;;;;11.25;10.00;;;;;6.27;57.68;101034.06;5049559;27;45761;-71
2021/12/03 06:01:11;;;;;;;;;11.25;9.25;;;;;6.04;57.75;100981.47;5049972;28;45928;-71
2021/12/03 06:03:37;;;;;;;;;12.25;9.25;;;;;6.00;57.35;100965.75;5049616;28;46565;-70
2021/12/03 06:06:03;;;;;;;;;5.00;5.00;;;;;6.11;57.95;100998.13;5049446;28;45920;-71
2021/12/03 06:08:29;;;;;;;;;58.25;43.50;;;;;5.83;57.74;100940.19;5049462;28;45524;-70
2021/12/03 06:10:56;;;;;;;;;25.00;24.00;;;;;5.90;58.66;100946.44;5049780;28;45663;-71
2021/12/03 06:13:21;;;;;;;;;14.00;9.75;;;;;6.13;58.11;100986.91;5049277;28;45748;-72
2021/12/03 06:15:47;;;;;;;;;13.50;10.75;;;;;6.00;58.28;100968.38;5049766;28;45818;-71
2021/12/03 06:18:13;;;;;;;;;9.50;8.75;;;;;5.74;58.88;100942.56;5049742;28;45535;-72
2021/12/03 06:20:39;;;;;;;;;11.50;9.75;;;;;5.52;58.45;100916.03;5050208;28;45992;-71
2021/12/03 06:23:05;;;;;;;;;9.75;8.00;;;;;5.88;59.26;100982.78;5049094;28;46148;-70
2021/12/03 06:25:31;;;;;;;;;7.25;6.75;;;;;6.00;58.48;101004.75;5049434;28;45858;-70
2021/12/03 06:27:58;;;;;;;;;10.00;8.00;;;;;6.06;58.94;101004.94;5049387;28;45664;-70
2021/12/03 06:30:25;;;;;;;;;10.50;8.00;;;;;5.91;58.65;101001.06;5049624;27;45912;-70
2021/12/03 06:32:52;;;;;;;;;6.00;5.00;;;;;5.14;58.96;100880.41;5049447;28;45565;-70
2021/12/03 06:35:18;;;;;;;;;8.50;5.25;;;;;5.54;59.10;100923.88;5048966;28;45542;-72
2021/12/03 06:37:45;;;;;;;;;12.50;7.50;;;;;6.03;59.12;101007.47;5049045;28;45512;-72
2021/12/03 06:40:16;;;;;;;;;7.00;7.00;;;;;6.06;59.09;101007.53;5064872;27;45575;-71
2021/12/03 06:42:42;;;;;;;;;11.50;8.25;;;;;5.86;58.68;100976.69;5049528;28;45492;-72
2021/12/03 06:45:08;;;;;;;;;16.75;11.75;;;;;5.96;58.96;100996.03;5049369;27;45429;-71
2021/12/03 06:47:38;;;;;;;;;9.00;8.75;;;;;5.53;58.64;100923.03;5049517;28;45711;-72
2021/12/03 06:50:07;;;;;;;;;10.75;8.00;;;;;5.52;58.85;100921.25;5064992;27;45561;-71
2021/12/03 06:52:34;;;;;;;;;13.25;8.75;;;;;5.68;58.65;100945.03;5047824;27;48201;-71
2021/12/03 06:55:03;;;;;;;;;14.75;9.50;;;;;5.94;58.77;100988.19;5048938;28;45454;-71
2021/12/03 06:57:29;;;;;;;;;11.25;9.25;;;;;5.92;58.87;100987.22;5047349;28;45612;-71
2021/12/03 06:59:54;;;;;;;;;11.50;9.00;;;;;5.26;58.86;100876.41;5049771;28;45758;-71
2021/12/03 07:02:20;;;;;;;;;11.75;7.25;;;;;5.97;58.88;100984.78;5064535;28;46801;-70
2021/12/03 07:04:49;;;;;;;;;9.25;9.25;;;;;6.04;58.87;100991.00;5049053;28;45752;-71
2021/12/03 07:07:15;;;;;;;;;10.75;8.50;;;;;5.69;58.53;100931.19;5065402;27;45476;-72
2021/12/03 07:09:41;;;;;;;;;11.00;9.75;;;;;6.06;59.23;100999.72;5069688;27;45879;-71
2021/12/03 07:12:09;;;;;;;;;14.00;11.00;;;;;5.84;58.43;100967.09;5067813;27;47713;-70
2021/12/03 07:14:35;;;;;;;;;12.75;10.00;;;;;6.05;58.80;100995.34;5068842;27;45718;-71
2021/12/03 07:17:05;;;;;;;;;9.50;8.00;;;;;5.94;59.15;100990.78;5068522;28;45844;-71
2021/12/03 07:19:30;;;;;;;;;10.50;10.50;;;;;5.90;59.18;100975.03;5069355;27;45425;-72
2021/12/03 07:21:56;;;;;;;;;11.75;8.25;;;;;5.97;59.45;100989.09;5068938;28;45832;-71
2021/12/03 07:24:22;;;;;;;;;9.00;6.00;;;;;5.78;58.76;100952.22;5069446;27;45583;-71
2021/12/03 07:26:47;;;;;;;;;8.25;6.75;;;;;5.95;58.97;100976.94;5068665;28;45824;-71
2021/12/03 07:29:13;;;;;;;;;8.00;7.00;;;;;5.87;59.35;100968.03;5069539;27;45544;-72
2021/12/03 07:31:39;;;;;;;;;6.25;6.00;;;;;5.94;59.18;100985.56;5069096;28;46140;-72
2021/12/03 07:34:04;;;;;;;;;8.50;7.00;;;;;5.96;59.08;100988.22;5069420;28;45991;-72
2021/12/03 07:36:30;;;;;;;;;6.25;6.25;;;;;5.96;58.95;100985.63;5068783;27;46064;-72
2021/12/03 07:38:55;;;;;;;;;9.50;7.00;;;;;5.66;59.37;100933.72;5069321;28;45555;-71
2021/12/03 07:41:21;;;;;;;;;9.50;7.00;;;;;5.77;59.48;100955.66;5069265;27;45915;-71
2021/12/03 07:43:47;;;;;;;;;8.00;6.00;;;;;5.87;59.19;100978.44;5067987;27;45858;-71
2021/12/03 07:46:15;;;;;;;;;5.50;5.50;;;;;5.83;59.29;100975.72;5069066;27;45904;-71
2021/12/03 07:48:46;;;;;;;;;8.00;6.75;;;;;5.90;59.46;100975.03;5069712;27;45806;-71
2021/12/03 07:51:14;;;;;;;;;7.25;5.75;;;;;5.95;59.09;100976.94;5067348;27;46599;-71
2021/12/03 07:53:40;;;;;;;;;6.50;5.00;;;;;5.80;59.50;100973.06;5069151;28;45384;-71
2021/12/03 07:56:05;;;;;;;;;7.00;5.75;;;;;5.73;59.43;100979.81;5067397;27;45769;-71
2021/12/03 07:58:31;;;;;;;;;6.50;6.50;;;;;5.85;59.26;100982.72;5069551;27;45528;-71
2021/12/03 08:00:58;;;;;;;;;11.00;7.00;;;;;5.80;59.41;100960.06;5061364;27;45800;-72
2021/12/03 08:03:24;;;;;;;;;7.00;5.00;;;;;5.89;59.78;100994.09;5051113;28;45570;-72
2021/12/03 08:05:49;;;;;;;;;6.75;6.00;;;;;5.71;59.31;100945.09;5052144;28;45595;-71
2021/12/03 08:08:22;;;;;;;;;13.00;7.75;;;;;5.95;60.10;100976.06;5052021;28;45860;-70
2021/12/03 08:10:49;;;;;;;;;10.00;8.00;;;;;5.86;59.53;100957.59;5051812;28;45616;-71
2021/12/03 08:13:16;;;;;;;;;7.75;6.50;;;;;6.07;59.11;100991.94;5051485;28;46143;-70
2021/12/03 08:15:42;;;;;;;;;7.50;5.00;;;;;6.07;58.79;100991.06;5051713;28;45602;-71
2021/12/03 08:18:07;;;;;;;;;4.75;4.00;;;;;5.85;59.16;100943.72;5052863;28;45465;-71
2021/12/03 08:20:33;;;;;;;;;6.00;6.00;;;;;6.02;59.27;100962.34;5052556;28;45787;-71
2021/12/03 08:23:00;;;;;;;;;8.50;5.25;;;;;5.88;59.19;100937.72;5067038;27;45713;-71
2021/12/03 08:25:26;;;;;;;;;6.75;5.50;;;;;6.27;60.17;100987.25;5052146;28;45556;-70
2021/12/03 08:27:53;;;;;;;;;6.00;5.25;;;;;6.27;58.65;100975.97;5051610;28;45590;-69
2021/12/03 08:30:22;;;;;;;;;5.75;5.00;;;;;6.35;58.46;100987.41;5051676;28;45543;-69
2021/12/03 08:32:48;;;;;;;;;8.25;6.00;;;;;6.31;58.21;100975.16;5051576;27;45468;-71
2021/12/03 08:35:14;;;;;;;;;5.00;5.00;;;;;6.35;57.84;100983.09;5066575;27;45798;-70
2021/12/03 08:37:45;;;;;;;;;5.00;5.00;;;;;6.20;58.20;100958.47;5051526;28;45476;-70
2021/12/03 08:40:11;;;;;;;;;6.50;6.50;;;;;6.02;58.09;100935.47;5051230;28;46619;-70
2021/12/03 08:42:37;;;;;;;;;7.50;5.75;;;;;6.19;58.15;100977.50;5051667;28;46140;-69
2021/12/03 08:45:04;;;;;;;;;7.25;7.00;;;;;6.11;58.20;100959.09;5051513;28;45464;-71
2021/12/03 08:47:31;;;;;;;;;5.00;5.00;;;;;6.25;57.75;100981.13;5066657;27;45807;-69
2021/12/03 08:49:57;;;;;;;;;7.00;4.50;;;;;6.19;57.85;100977.50;5051265;28;45945;-70
2021/12/03 08:55:08;;;;;;;;;7.00;6.50;;;;;6.20;58.01;100967.13;5051250;28;45528;-70
2021/12/03 08:57:35;;;;;;;;;6.00;6.00;;;;;6.23;58.03;100967.19;5050702;28;45487;-69
2021/12/03 09:00:15;;;;;;;;;4.00;4.00;;;;;6.29;58.08;100972.56;5048968;28;46031;-69
2021/12/03 09:02:41;;;;;;;;;6.00;6.00;;;;;6.47;57.57;100979.00;5050819;28;45478;-73
2021/12/03 09:05:08;;;;;;;;;5.75;5.75;;;;;6.34;57.76;100962.25;5053706;28;45916;-70
2021/12/03 09:07:34;;;;;;;;;8.00;6.25;;;;;6.31;57.17;100980.38;5071212;27;45519;-69
2021/12/03 09:10:00;;;;;;;;;6.00;4.75;;;;;6.28;57.58;100986.38;5070278;27;45965;-71
2021/12/03 09:12:30;;;;;;;;;6.75;6.00;;;;;6.11;57.84;100946.09;5070580;27;45476;-69
2021/12/03 09:15:00;;;;;;;;;6.75;3.75;;;;;6.26;57.57;100962.06;5070643;27;45992;-71
2021/12/03 09:22:42;;;;;;;;;10.25;7.00;;;;;6.28;57.50;100967.31;5071144;27;45514;-70
2021/12/03 09:25:17;;;;;;;;;5.00;5.00;;;;;6.19;57.40;100965.34;5070874;27;45566;-71
2021/12/03 09:27:44;;;;;;;;;8.25;8.00;;;;;6.21;58.38;100974.06;5070542;27;45534;-70
2021/12/03 09:30:14;;;;;;;;;2.75;2.00;;;;;5.74;58.27;100869.78;5068863;27;46467;-71
2021/12/03 09:32:42;;;;;;;;;7.00;5.75;;;;;6.25;57.88;100962.91;5070667;27;45444;-71
2021/12/03 09:35:09;;;;;;;;;9.25;7.25;;;;;6.35;57.76;100962.25;5070699;27;45611;-71
2021/12/03 09:37:35;;;;;;;;;11.00;8.00;;;;;5.97;58.22;100877.31;5071137;28;45594;-71
2021/12/03 09:40:06;;;;;;;;;6.50;6.25;;;;;6.33;58.07;100944.88;5070096;27;46239;-70
2021/12/03 09:42:36;;;;;;;;;9.25;7.50;;;;;6.14;58.32;100940.97;5069966;27;45523;-72
2021/12/03 09:45:04;;;;;;;;;5.50;3.00;;;;;6.20;58.60;100948.06;5070423;27;45527;-70
2021/12/03 09:47:30;;;;;;;;;9.00;6.00;;;;;5.93;58.95;100899.69;5069159;27;45685;-70
2021/12/03 09:50:00;;;;;;;;;6.25;6.25;;;;;6.20;58.83;100928.13;5068610;28;46335;-71
2021/12/03 09:54:56;;;;;;;;;6.25;5.75;;;;;6.14;59.40;100938.38;5071050;27;45847;-70
2021/12/03 10:08:50;;;;;;;;;8.25;7.25;;;;;5.92;59.96;100932.63;5071668;27;45407;-70
2021/12/03 10:16:44;;;;;;;;;8.75;7.50;;;;;5.81;60.75;100930.59;5073058;27;45576;-70
2021/12/03 10:22:51;;;;;;;;;9.00;6.75;;;;;5.73;62.00;100902.72;5070139;27;45765;-70
2021/12/03 10:52:11;;;;;;;;;10.75;8.75;;;;;5.20;66.45;100826.06;5070649;28;45452;-70
2021/12/03 11:03:28;;;;;;;;;9.00;8.00;;;;;4.99;68.12;100840.25;5071262;28;45672;-70
2021/12/03 11:08:39;;;;;;;;;5.50;5.50;;;;;5.00;68.51;100836.78;5070211;28;46032;-69
2021/12/03 11:17:33;;;;;;;;;10.75;9.50;;;;;4.62;69.68;100761.41;5070022;28;45504;-70
2021/12/03 11:59:04;;;;;;;;;6.25;5.00;;;;;4.63;71.28;100690.53;5075132;27;46014;-69
2021/12/03 12:11:23;;;;;;;;;8.75;8.00;;;;;4.81;72.16;100694.44;5074987;28;45811;-73
2021/12/03 12:19:11;;;;;;;;;6.75;6.00;;;;;4.67;71.90;100674.22;5073099;27;45487;-70
2021/12/03 13:12:00;;;;;;;;;7.25;5.25;;;;;4.94;72.23;100609.97;5050905;28;45561;-70
2021/12/03 14:39:46;;;;;;;;;3.75;3.00;;;;;5.21;74.97;100441.78;5050958;28;45935;-71
2021/12/03 14:45:00;;;;;;;;;4.50;4.50;;;;;5.19;74.63;100427.03;5048955;28;45876;-69
2021/12/03 14:55:51;;;;;;;;;4.00;4.00;;;;;5.18;74.62;100383.75;5047328;28;45928;-71
2021/12/03 14:58:23;;;;;;;;;6.75;4.75;;;;;5.35;75.08;100410.03;5047201;28;46246;-70
2021/12/03 15:01:01;;;;;;;;;4.50;4.50;;;;;5.32;75.03;100410.84;5061452;27;45997;-71
2021/12/03 15:06:36;;;;;;;;;5.50;5.00;;;;;5.29;74.75;100400.38;5054449;28;45448;-71
2021/12/03 15:09:12;;;;;;;;;6.50;5.00;;;;;5.24;75.42;100374.34;5046980;28;46304;-72
2021/12/03 15:22:42;;;;;;;;;4.75;4.25;;;;;5.48;74.68;100386.00;5074837;27;45475;-70
2021/12/03 15:25:26;;;;;;;;;6.50;4.00;;;;;5.48;75.01;100386.00;5072572;27;45410;-70
2021/12/03 15:33:52;;;;;;;;;5.00;4.50;;;;;5.45;74.34;100355.66;5053700;28;45493;-73
2021/12/03 15:36:41;;;;;;;;;4.75;4.75;;;;;4.94;74.63;100277.78;5076162;27;45350;-71
2021/12/03 15:53:14;;;;;;;;;6.25;6.25;;;;;5.49;75.96;100338.41;5056644;28;45790;-71
2021/12/03 15:56:18;;;;;;;;;6.00;6.00;;;;;5.41;76.28;100327.00;5075420;27;45675;-72
2021/12/03 16:04:11;;;;;;;;;4.00;4.00;;;;;5.48;75.50;100339.22;5075621;27;45838;-69
2021/12/03 16:14:55;;;;;;;;;5.25;4.50;;;;;5.43;75.82;100317.50;5075494;27;45508;-69
2021/12/03 16:26:18;;;;;;;;;5.25;5.25;;;;;5.57;75.56;100276.16;5061480;28;45962;-71
2021/12/03 16:48:17;;;;;;;;;5.25;5.25;;;;;5.53;76.75;100239.78;5058416;28;45505;-73
2021/12/03 16:53:05;;;;;;;;;8.00;6.00;;;;;5.41;76.10;100216.22;5063165;28;45523;-72
2021/12/03 16:55:31;;;;;;;;;6.50;6.50;;;;;5.38;76.12;100203.16;5064280;28;45512;-70
2021/12/03 16:57:56;;;;;;;;;6.75;6.00;;;;;5.55;76.55;100216.38;5059606;28;46144;-71
2021/12/03 17:00:36;;;;;;;;;7.50;6.00;;;;;5.53;76.34;100213.78;5059129;28;45512;-71
2021/12/03 17:03:08;;;;;;;;;8.50;7.50;;;;;4.58;76.62;100061.84;5076533;28;45540;-71
2021/12/03 17:13:37;;;;;;;;;9.50;8.25;;;;;5.48;77.07;100207.66;5079180;27;45335;-72
2021/12/03 17:53:24;;;;;;;;;7.25;7.25;;;;;5.66;77.47;100162.84;5055570;28;45413;-72
2021/12/03 17:56:16;;;;;;;;;9.75;8.00;;;;;5.64;77.37;100141.16;5055247;27;45448;-72
2021/12/03 17:58:49;;;;;;;;;5.75;5.75;;;;;5.72;77.37;100149.94;5055483;28;45417;-70
2021/12/03 18:01:30;;;;;;;;;10.25;8.25;;;;;5.65;77.35;100122.16;5055194;28;45580;-70
2021/12/03 18:09:13;;;;;;;;;9.50;9.50;;;;;5.71;77.75;100118.75;5055429;28;45508;-70
2021/12/03 18:44:38;;;;;;;;;10.75;10.25;;;;;5.78;78.90;100041.72;5062365;28;45786;-71
2021/12/03 18:54:48;;;;;;;;;12.25;10.50;;;;;5.77;79.38;99996.69;5078349;27;46171;-72
2021/12/03 18:57:19;;;;;;;;;21.75;19.00;;;;;5.92;78.21;100009.81;5078090;27;45416;-71